sensor_id;sensor_type;location;lat;lon;timestamp;P1;durP1;ratioP1;P2;durP2;ratioP2
20344;SDS011;10330;48.816;9.278;2023-06-10T00:01:49;21.27;;;14.43;;
20344;SDS011;10330;48.816;9.278;2023-06-10T00:04:16;8.45;;;6.38;;
20344;SDS011;10330;48.816;9.278;2023-06-10T00:06:45;5.82;;;5.22;;
20344;SDS011;10330;48.816;9.278;2023-06-10T00:09:14;6.82;;;5.05;;
20344;SDS011;10330;48.816;9.278;2023-06-10T00:11:40;6.68;;;5.28;;
20344;SDS011;10330;48.816;9.278;2023-06-10T00:14:07;6.53;;;5.32;;
20344;SDS011;10330;48.816;9.278;2023-06-10T00:16:33;6.97;;;4.88;;
20344;SDS011;10330;48.816;9.278;2023-06-10T00:19:02;18.83;;;10.73;;
20344;SDS011;10330;48.816;9.278;2023-06-10T00:21:30;20.63;;;11.57;;
20344;SDS011;10330;48.816;9.278;2023-06-10T00:24:05;13.43;;;8.35;;
20344;SDS011;10330;48.816;9.278;2023-06-10T00:26:32;7.03;;;5.15;;
20344;SDS011;10330;48.816;9.278;2023-06-10T00:28:59;5.85;;;4.82;;
20344;SDS011;10330;48.816;9.278;2023-06-10T00:31:27;6.47;;;5.07;;
20344;SDS011;10330;48.816;9.278;2023-06-10T00:33:53;5.70;;;5.10;;
20344;SDS011;10330;48.816;9.278;2023-06-10T00:36:20;7.32;;;4.90;;
20344;SDS011;10330;48.816;9.278;2023-06-10T00:38:46;6.95;;;4.63;;
20344;SDS011;10330;48.816;9.278;2023-06-10T00:41:12;5.40;;;4.85;;
20344;SDS011;10330;48.816;9.278;2023-06-10T00:43:39;4.78;;;4.32;;
20344;SDS011;10330;48.816;9.278;2023-06-10T00:46:05;8.70;;;5.00;;
20344;SDS011;10330;48.816;9.278;2023-06-10T00:48:31;8.07;;;5.35;;
20344;SDS011;10330;48.816;9.278;2023-06-10T00:50:58;6.00;;;5.35;;
20344;SDS011;10330;48.816;9.278;2023-06-10T00:53:25;4.93;;;4.40;;
20344;SDS011;10330;48.816;9.278;2023-06-10T00:55:52;5.20;;;4.65;;
20344;SDS011;10330;48.816;9.278;2023-06-10T00:58:19;8.80;;;4.93;;
20344;SDS011;10330;48.816;9.278;2023-06-10T01:00:45;7.90;;;4.93;;
20344;SDS011;10330;48.816;9.278;2023-06-10T01:03:12;22.05;;;12.75;;
20344;SDS011;10330;48.816;9.278;2023-06-10T01:05:38;18.30;;;12.27;;
20344;SDS011;10330;48.816;9.278;2023-06-10T01:08:09;21.13;;;14.80;;
20344;SDS011;10330;48.816;9.278;2023-06-10T01:10:50;24.08;;;15.57;;
20344;SDS011;10330;48.816;9.278;2023-06-10T01:13:21;16.88;;;11.70;;
20344;SDS011;10330;48.816;9.278;2023-06-10T01:15:50;20.02;;;11.90;;
20344;SDS011;10330;48.816;9.278;2023-06-10T01:18:17;6.53;;;5.75;;
20344;SDS011;10330;48.816;9.278;2023-06-10T01:20:44;7.78;;;5.43;;
20344;SDS011;10330;48.816;9.278;2023-06-10T01:23:12;6.38;;;5.00;;
20344;SDS011;10330;48.816;9.278;2023-06-10T01:25:46;15.90;;;8.73;;
20344;SDS011;10330;48.816;9.278;2023-06-10T01:33:43;5.88;;;5.28;;
20344;SDS011;10330;48.816;9.278;2023-06-10T01:36:13;6.30;;;4.95;;
20344;SDS011;10330;48.816;9.278;2023-06-10T01:38:45;5.30;;;4.80;;
20344;SDS011;10330;48.816;9.278;2023-06-10T01:41:17;7.28;;;4.95;;
20344;SDS011;10330;48.816;9.278;2023-06-10T01:43:44;6.90;;;4.82;;
20344;SDS011;10330;48.816;9.278;2023-06-10T01:46:13;6.43;;;5.30;;
20344;SDS011;10330;48.816;9.278;2023-06-10T01:48:41;6.80;;;4.93;;
20344;SDS011;10330;48.816;9.278;2023-06-10T01:51:08;8.10;;;5.10;;
20344;SDS011;10330;48.816;9.278;2023-06-10T01:53:35;8.23;;;4.80;;
20344;SDS011;10330;48.816;9.278;2023-06-10T01:56:01;6.25;;;5.30;;
20344;SDS011;10330;48.816;9.278;2023-06-10T01:58:28;11.15;;;4.50;;
20344;SDS011;10330;48.816;9.278;2023-06-10T02:00:55;6.85;;;5.00;;
20344;SDS011;10330;48.816;9.278;2023-06-10T02:03:21;5.40;;;4.53;;
20344;SDS011;10330;48.816;9.278;2023-06-10T02:05:47;5.05;;;4.55;;
20344;SDS011;10330;48.816;9.278;2023-06-10T02:08:15;5.20;;;4.53;;
20344;SDS011;10330;48.816;9.278;2023-06-10T02:10:41;5.70;;;4.65;;
20344;SDS011;10330;48.816;9.278;2023-06-10T02:13:07;6.88;;;5.25;;
20344;SDS011;10330;48.816;9.278;2023-06-10T02:15:34;9.35;;;4.00;;
20344;SDS011;10330;48.816;9.278;2023-06-10T02:18:00;6.03;;;5.30;;
20344;SDS011;10330;48.816;9.278;2023-06-10T02:20:26;4.63;;;4.10;;
20344;SDS011;10330;48.816;9.278;2023-06-10T02:22:53;5.55;;;4.65;;
20344;SDS011;10330;48.816;9.278;2023-06-10T02:25:19;6.72;;;4.93;;
20344;SDS011;10330;48.816;9.278;2023-06-10T02:27:45;5.57;;;4.68;;
20344;SDS011;10330;48.816;9.278;2023-06-10T02:30:11;4.78;;;4.32;;
20344;SDS011;10330;48.816;9.278;2023-06-10T02:32:39;5.78;;;4.18;;
20344;SDS011;10330;48.816;9.278;2023-06-10T02:35:06;5.07;;;4.63;;
20344;SDS011;10330;48.816;9.278;2023-06-10T02:37:33;4.65;;;4.25;;
20344;SDS011;10330;48.816;9.278;2023-06-10T02:40:00;6.28;;;5.65;;
20344;SDS011;10330;48.816;9.278;2023-06-10T02:42:26;5.13;;;4.35;;
20344;SDS011;10330;48.816;9.278;2023-06-10T02:44:53;5.10;;;4.63;;
20344;SDS011;10330;48.816;9.278;2023-06-10T02:47:29;7.45;;;4.88;;
20344;SDS011;10330;48.816;9.278;2023-06-10T02:49:56;5.18;;;4.53;;
20344;SDS011;10330;48.816;9.278;2023-06-10T02:52:22;5.28;;;4.70;;
20344;SDS011;10330;48.816;9.278;2023-06-10T02:54:48;5.35;;;4.85;;
20344;SDS011;10330;48.816;9.278;2023-06-10T02:57:15;5.93;;;4.75;;
20344;SDS011;10330;48.816;9.278;2023-06-10T02:59:41;5.40;;;4.90;;
20344;SDS011;10330;48.816;9.278;2023-06-10T03:02:08;5.07;;;3.90;;
20344;SDS011;10330;48.816;9.278;2023-06-10T03:04:41;4.82;;;4.43;;
20344;SDS011;10330;48.816;9.278;2023-06-10T03:07:13;5.00;;;4.57;;
20344;SDS011;10330;48.816;9.278;2023-06-10T03:09:40;5.57;;;4.55;;
20344;SDS011;10330;48.816;9.278;2023-06-10T03:12:09;9.00;;;5.03;;
20344;SDS011;10330;48.816;9.278;2023-06-10T03:14:40;5.70;;;5.03;;
20344;SDS011;10330;48.816;9.278;2023-06-10T03:17:07;6.18;;;4.75;;
20344;SDS011;10330;48.816;9.278;2023-06-10T03:19:35;5.95;;;4.20;;
20344;SDS011;10330;48.816;9.278;2023-06-10T03:22:14;6.78;;;5.10;;
20344;SDS011;10330;48.816;9.278;2023-06-10T03:24:47;9.60;;;5.50;;
20344;SDS011;10330;48.816;9.278;2023-06-10T03:27:16;5.63;;;4.72;;
20344;SDS011;10330;48.816;9.278;2023-06-10T03:29:45;8.40;;;5.47;;
20344;SDS011;10330;48.816;9.278;2023-06-10T03:32:12;6.93;;;5.70;;
20344;SDS011;10330;48.816;9.278;2023-06-10T03:34:40;10.05;;;5.75;;
20344;SDS011;10330;48.816;9.278;2023-06-10T03:37:07;10.95;;;5.78;;
20344;SDS011;10330;48.816;9.278;2023-06-10T03:39:33;6.60;;;5.00;;
20344;SDS011;10330;48.816;9.278;2023-06-10T03:42:01;7.65;;;5.40;;
20344;SDS011;10330;48.816;9.278;2023-06-10T03:44:29;5.55;;;4.90;;
20344;SDS011;10330;48.816;9.278;2023-06-10T03:46:55;5.93;;;4.93;;
20344;SDS011;10330;48.816;9.278;2023-06-10T03:49:24;5.30;;;4.43;;
20344;SDS011;10330;48.816;9.278;2023-06-10T03:51:54;5.93;;;5.25;;
20344;SDS011;10330;48.816;9.278;2023-06-10T03:54:21;6.43;;;4.95;;
20344;SDS011;10330;48.816;9.278;2023-06-10T03:56:48;5.32;;;4.47;;
20344;SDS011;10330;48.816;9.278;2023-06-10T03:59:14;6.38;;;5.72;;
20344;SDS011;10330;48.816;9.278;2023-06-10T04:01:40;10.80;;;6.43;;
20344;SDS011;10330;48.816;9.278;2023-06-10T04:04:07;10.05;;;5.70;;
20344;SDS011;10330;48.816;9.278;2023-06-10T04:06:34;9.23;;;5.57;;
20344;SDS011;10330;48.816;9.278;2023-06-10T04:09:01;8.93;;;5.60;;
20344;SDS011;10330;48.816;9.278;2023-06-10T04:11:28;9.25;;;5.30;;
20344;SDS011;10330;48.816;9.278;2023-06-10T04:13:56;6.50;;;5.30;;
20344;SDS011;10330;48.816;9.278;2023-06-10T04:16:23;6.20;;;5.18;;
20344;SDS011;10330;48.816;9.278;2023-06-10T04:18:49;5.90;;;4.72;;
20344;SDS011;10330;48.816;9.278;2023-06-10T04:21:17;6.25;;;5.63;;
20344;SDS011;10330;48.816;9.278;2023-06-10T04:23:43;5.05;;;4.55;;
20344;SDS011;10330;48.816;9.278;2023-06-10T04:26:10;9.20;;;4.93;;
20344;SDS011;10330;48.816;9.278;2023-06-10T04:28:38;5.32;;;4.50;;
20344;SDS011;10330;48.816;9.278;2023-06-10T04:31:04;8.00;;;4.85;;
20344;SDS011;10330;48.816;9.278;2023-06-10T04:33:31;5.20;;;4.60;;
20344;SDS011;10330;48.816;9.278;2023-06-10T04:35:59;7.57;;;4.55;;
20344;SDS011;10330;48.816;9.278;2023-06-10T04:38:28;5.75;;;5.25;;
20344;SDS011;10330;48.816;9.278;2023-06-10T04:40:58;5.03;;;4.53;;
20344;SDS011;10330;48.816;9.278;2023-06-10T04:43:26;5.88;;;5.13;;
20344;SDS011;10330;48.816;9.278;2023-06-10T04:45:55;6.30;;;4.95;;
20344;SDS011;10330;48.816;9.278;2023-06-10T04:48:22;5.50;;;4.85;;
20344;SDS011;10330;48.816;9.278;2023-06-10T04:50:50;6.63;;;5.18;;
20344;SDS011;10330;48.816;9.278;2023-06-10T04:53:17;6.07;;;4.25;;
20344;SDS011;10330;48.816;9.278;2023-06-10T04:55:45;5.72;;;4.10;;
20344;SDS011;10330;48.816;9.278;2023-06-10T04:58:12;5.15;;;4.50;;
20344;SDS011;10330;48.816;9.278;2023-06-10T05:00:38;5.22;;;4.80;;
20344;SDS011;10330;48.816;9.278;2023-06-10T05:03:04;6.43;;;4.68;;
20344;SDS011;10330;48.816;9.278;2023-06-10T05:05:30;4.68;;;4.20;;
20344;SDS011;10330;48.816;9.278;2023-06-10T05:07:57;5.07;;;4.45;;
20344;SDS011;10330;48.816;9.278;2023-06-10T05:10:23;4.75;;;4.15;;
20344;SDS011;10330;48.816;9.278;2023-06-10T05:12:49;5.07;;;4.15;;
20344;SDS011;10330;48.816;9.278;2023-06-10T05:15:15;4.35;;;3.95;;
20344;SDS011;10330;48.816;9.278;2023-06-10T05:17:41;5.22;;;4.53;;
20344;SDS011;10330;48.816;9.278;2023-06-10T05:20:08;6.18;;;4.60;;
20344;SDS011;10330;48.816;9.278;2023-06-10T05:22:34;5.53;;;4.63;;
20344;SDS011;10330;48.816;9.278;2023-06-10T05:25:01;4.38;;;3.72;;
20344;SDS011;10330;48.816;9.278;2023-06-10T05:27:27;5.00;;;4.18;;
20344;SDS011;10330;48.816;9.278;2023-06-10T05:29:53;4.50;;;4.10;;
20344;SDS011;10330;48.816;9.278;2023-06-10T05:32:19;4.90;;;4.22;;
20344;SDS011;10330;48.816;9.278;2023-06-10T05:34:46;4.40;;;4.00;;
20344;SDS011;10330;48.816;9.278;2023-06-10T05:37:12;6.47;;;4.65;;
20344;SDS011;10330;48.816;9.278;2023-06-10T05:39:39;4.55;;;4.10;;
20344;SDS011;10330;48.816;9.278;2023-06-10T05:42:06;5.38;;;4.07;;
20344;SDS011;10330;48.816;9.278;2023-06-10T05:44:33;4.78;;;4.13;;
20344;SDS011;10330;48.816;9.278;2023-06-10T05:47:02;5.88;;;4.05;;
20344;SDS011;10330;48.816;9.278;2023-06-10T05:52:42;4.75;;;4.18;;
20344;SDS011;10330;48.816;9.278;2023-06-10T05:55:26;3.95;;;3.58;;
20344;SDS011;10330;48.816;9.278;2023-06-10T05:57:59;5.65;;;3.72;;
20344;SDS011;10330;48.816;9.278;2023-06-10T06:00:28;3.92;;;3.63;;
20344;SDS011;10330;48.816;9.278;2023-06-10T06:02:54;4.13;;;3.72;;
20344;SDS011;10330;48.816;9.278;2023-06-10T06:05:22;7.70;;;4.53;;
20344;SDS011;10330;48.816;9.278;2023-06-10T06:07:48;9.32;;;4.65;;
20344;SDS011;10330;48.816;9.278;2023-06-10T06:10:16;4.68;;;4.10;;
20344;SDS011;10330;48.816;9.278;2023-06-10T06:12:43;4.15;;;3.78;;
20344;SDS011;10330;48.816;9.278;2023-06-10T06:15:10;4.65;;;3.83;;
20344;SDS011;10330;48.816;9.278;2023-06-10T06:17:36;6.88;;;3.78;;
20344;SDS011;10330;48.816;9.278;2023-06-10T06:20:03;4.60;;;4.22;;
20344;SDS011;10330;48.816;9.278;2023-06-10T06:22:30;4.63;;;3.97;;
20344;SDS011;10330;48.816;9.278;2023-06-10T06:24:57;4.28;;;3.42;;
20344;SDS011;10330;48.816;9.278;2023-06-10T06:27:23;9.07;;;4.18;;
20344;SDS011;10330;48.816;9.278;2023-06-10T06:29:49;8.18;;;4.10;;
20344;SDS011;10330;48.816;9.278;2023-06-10T06:32:18;4.32;;;3.92;;
20344;SDS011;10330;48.816;9.278;2023-06-10T06:34:45;4.40;;;3.95;;
20344;SDS011;10330;48.816;9.278;2023-06-10T06:37:15;4.50;;;4.05;;
20344;SDS011;10330;48.816;9.278;2023-06-10T06:39:43;6.22;;;3.92;;
20344;SDS011;10330;48.816;9.278;2023-06-10T06:42:10;4.93;;;4.28;;
20344;SDS011;10330;48.816;9.278;2023-06-10T06:44:50;3.88;;;3.58;;
20344;SDS011;10330;48.816;9.278;2023-06-10T06:47:16;5.05;;;4.32;;
20344;SDS011;10330;48.816;9.278;2023-06-10T06:49:51;4.45;;;4.05;;
20344;SDS011;10330;48.816;9.278;2023-06-10T06:52:21;5.68;;;3.90;;
20344;SDS011;10330;48.816;9.278;2023-06-10T06:54:55;5.03;;;4.15;;
20344;SDS011;10330;48.816;9.278;2023-06-10T06:57:33;4.78;;;4.32;;
20344;SDS011;10330;48.816;9.278;2023-06-10T07:00:02;5.85;;;4.45;;
20344;SDS011;10330;48.816;9.278;2023-06-10T07:02:30;7.00;;;4.00;;
20344;SDS011;10330;48.816;9.278;2023-06-10T07:04:58;6.38;;;3.75;;
20344;SDS011;10330;48.816;9.278;2023-06-10T07:07:25;4.15;;;3.58;;
20344;SDS011;10330;48.816;9.278;2023-06-10T07:09:51;4.75;;;3.80;;
20344;SDS011;10330;48.816;9.278;2023-06-10T07:12:18;4.00;;;3.70;;
20344;SDS011;10330;48.816;9.278;2023-06-10T07:14:52;4.65;;;3.95;;
20344;SDS011;10330;48.816;9.278;2023-06-10T07:17:26;4.53;;;4.13;;
20344;SDS011;10330;48.816;9.278;2023-06-10T07:19:58;5.25;;;4.40;;
20344;SDS011;10330;48.816;9.278;2023-06-10T07:22:25;6.05;;;4.57;;
20344;SDS011;10330;48.816;9.278;2023-06-10T07:24:51;3.50;;;3.30;;
20344;SDS011;10330;48.816;9.278;2023-06-10T07:27:20;7.60;;;3.85;;
20344;SDS011;10330;48.816;9.278;2023-06-10T07:29:46;4.38;;;3.75;;
20344;SDS011;10330;48.816;9.278;2023-06-10T07:32:12;3.80;;;3.22;;
20344;SDS011;10330;48.816;9.278;2023-06-10T07:34:39;4.20;;;3.85;;
20344;SDS011;10330;48.816;9.278;2023-06-10T07:37:06;4.78;;;3.83;;
20344;SDS011;10330;48.816;9.278;2023-06-10T07:39:35;4.07;;;3.65;;
20344;SDS011;10330;48.816;9.278;2023-06-10T07:42:01;6.72;;;3.03;;
20344;SDS011;10330;48.816;9.278;2023-06-10T07:44:31;6.60;;;4.05;;
20344;SDS011;10330;48.816;9.278;2023-06-10T07:47:02;6.53;;;4.10;;
20344;SDS011;10330;48.816;9.278;2023-06-10T07:49:36;3.88;;;3.58;;
20344;SDS011;10330;48.816;9.278;2023-06-10T07:52:09;3.72;;;3.42;;
20344;SDS011;10330;48.816;9.278;2023-06-10T07:54:41;4.05;;;3.67;;
20344;SDS011;10330;48.816;9.278;2023-06-10T07:57:12;4.55;;;3.67;;
20344;SDS011;10330;48.816;9.278;2023-06-10T07:59:47;4.72;;;4.05;;
20344;SDS011;10330;48.816;9.278;2023-06-10T08:02:16;4.47;;;3.70;;
20344;SDS011;10330;48.816;9.278;2023-06-10T08:04:49;4.00;;;3.60;;
20344;SDS011;10330;48.816;9.278;2023-06-10T08:07:28;4.30;;;3.90;;
20344;SDS011;10330;48.816;9.278;2023-06-10T08:09:56;5.55;;;4.68;;
20344;SDS011;10330;48.816;9.278;2023-06-10T08:12:22;4.55;;;3.80;;
20344;SDS011;10330;48.816;9.278;2023-06-10T08:14:49;5.25;;;3.97;;
20344;SDS011;10330;48.816;9.278;2023-06-10T08:17:15;7.15;;;3.90;;
20344;SDS011;10330;48.816;9.278;2023-06-10T08:19:42;6.20;;;4.00;;
20344;SDS011;10330;48.816;9.278;2023-06-10T08:22:08;3.83;;;3.53;;
20344;SDS011;10330;48.816;9.278;2023-06-10T08:24:35;4.30;;;3.30;;
20344;SDS011;10330;48.816;9.278;2023-06-10T08:27:02;3.83;;;3.53;;
20344;SDS011;10330;48.816;9.278;2023-06-10T08:29:28;4.38;;;4.00;;
20344;SDS011;10330;48.816;9.278;2023-06-10T08:32:11;4.60;;;3.65;;
20344;SDS011;10330;48.816;9.278;2023-06-10T08:34:37;3.95;;;3.63;;
20344;SDS011;10330;48.816;9.278;2023-06-10T08:39:43;3.92;;;3.72;;
20344;SDS011;10330;48.816;9.278;2023-06-10T08:42:11;5.05;;;4.03;;
20344;SDS011;10330;48.816;9.278;2023-06-10T08:44:47;4.57;;;3.60;;
20344;SDS011;10330;48.816;9.278;2023-06-10T08:47:22;4.15;;;3.38;;
20344;SDS011;10330;48.816;9.278;2023-06-10T08:50:03;3.75;;;3.38;;
20344;SDS011;10330;48.816;9.278;2023-06-10T08:52:37;4.07;;;3.75;;
20344;SDS011;10330;48.816;9.278;2023-06-10T08:55:21;5.72;;;4.00;;
20344;SDS011;10330;48.816;9.278;2023-06-10T08:58:02;4.38;;;3.97;;
20344;SDS011;10330;48.816;9.278;2023-06-10T09:00:32;4.68;;;4.28;;
20344;SDS011;10330;48.816;9.278;2023-06-10T09:03:09;3.75;;;3.33;;
20344;SDS011;10330;48.816;9.278;2023-06-10T09:05:36;4.18;;;3.78;;
20344;SDS011;10330;48.816;9.278;2023-06-10T09:08:12;4.68;;;3.40;;
20344;SDS011;10330;48.816;9.278;2023-06-10T09:10:42;7.70;;;4.63;;
20344;SDS011;10330;48.816;9.278;2023-06-10T09:20:48;6.22;;;4.78;;
20344;SDS011;10330;48.816;9.278;2023-06-10T09:26:09;4.40;;;3.45;;
20344;SDS011;10330;48.816;9.278;2023-06-10T09:35:51;7.45;;;4.15;;
20344;SDS011;10330;48.816;9.278;2023-06-10T09:47:05;6.85;;;3.88;;
20344;SDS011;10330;48.816;9.278;2023-06-10T09:53:32;3.85;;;3.60;;
20344;SDS011;10330;48.816;9.278;2023-06-10T09:59:56;5.22;;;3.30;;
20344;SDS011;10330;48.816;9.278;2023-06-10T10:02:26;3.50;;;3.20;;
20344;SDS011;10330;48.816;9.278;2023-06-10T10:04:53;9.18;;;3.42;;
20344;SDS011;10330;48.816;9.278;2023-06-10T10:07:27;5.85;;;3.45;;
20344;SDS011;10330;48.816;9.278;2023-06-10T10:09:53;3.70;;;3.42;;
20344;SDS011;10330;48.816;9.278;2023-06-10T10:12:19;3.58;;;3.00;;
20344;SDS011;10330;48.816;9.278;2023-06-10T10:14:46;3.20;;;3.00;;
20344;SDS011;10330;48.816;9.278;2023-06-10T10:17:14;4.15;;;3.35;;
20344;SDS011;10330;48.816;9.278;2023-06-10T10:19:48;2.80;;;2.70;;
20344;SDS011;10330;48.816;9.278;2023-06-10T10:22:30;3.17;;;2.88;;
20344;SDS011;10330;48.816;9.278;2023-06-10T10:25:02;3.03;;;2.65;;
20344;SDS011;10330;48.816;9.278;2023-06-10T10:27:35;5.32;;;3.40;;
20344;SDS011;10330;48.816;9.278;2023-06-10T10:30:09;4.28;;;3.42;;
20344;SDS011;10330;48.816;9.278;2023-06-10T10:32:48;2.95;;;2.80;;
20344;SDS011;10330;48.816;9.278;2023-06-10T10:35:43;7.97;;;4.82;;
20344;SDS011;10330;48.816;9.278;2023-06-10T10:38:11;6.47;;;4.35;;
20344;SDS011;10330;48.816;9.278;2023-06-10T10:40:37;8.80;;;3.70;;
20344;SDS011;10330;48.816;9.278;2023-06-10T10:43:05;5.25;;;4.07;;
20344;SDS011;10330;48.816;9.278;2023-06-10T10:45:33;7.88;;;4.25;;
20344;SDS011;10330;48.816;9.278;2023-06-10T10:48:03;8.30;;;6.20;;
20344;SDS011;10330;48.816;9.278;2023-06-10T10:50:35;5.47;;;4.35;;
20344;SDS011;10330;48.816;9.278;2023-06-10T10:53:02;6.07;;;5.18;;
20344;SDS011;10330;48.816;9.278;2023-06-10T10:55:30;4.85;;;3.38;;
20344;SDS011;10330;48.816;9.278;2023-06-10T10:58:02;5.20;;;3.20;;
20344;SDS011;10330;48.816;9.278;2023-06-10T11:00:36;4.97;;;3.67;;
20344;SDS011;10330;48.816;9.278;2023-06-10T11:03:13;10.40;;;4.28;;
20344;SDS011;10330;48.816;9.278;2023-06-10T11:05:48;4.15;;;3.70;;
20344;SDS011;10330;48.816;9.278;2023-06-10T11:12:11;3.63;;;2.95;;
20344;SDS011;10330;48.816;9.278;2023-06-10T11:14:40;5.75;;;3.70;;
20344;SDS011;10330;48.816;9.278;2023-06-10T11:52:22;4.82;;;3.30;;
20344;SDS011;10330;48.816;9.278;2023-06-10T11:54:53;4.25;;;3.30;;
20344;SDS011;10330;48.816;9.278;2023-06-10T11:57:26;3.35;;;3.00;;
20344;SDS011;10330;48.816;9.278;2023-06-10T11:59:55;3.65;;;3.35;;
20344;SDS011;10330;48.816;9.278;2023-06-10T12:03:09;7.63;;;3.42;;
20344;SDS011;10330;48.816;9.278;2023-06-10T12:05:35;3.30;;;3.00;;
20344;SDS011;10330;48.816;9.278;2023-06-10T12:08:08;5.20;;;3.00;;
20344;SDS011;10330;48.816;9.278;2023-06-10T12:10:39;3.25;;;2.95;;
20344;SDS011;10330;48.816;9.278;2023-06-10T12:13:19;2.60;;;2.40;;
20344;SDS011;10330;48.816;9.278;2023-06-10T12:15:46;5.45;;;2.90;;
20344;SDS011;10330;48.816;9.278;2023-06-10T12:21:15;3.58;;;3.28;;
20344;SDS011;10330;48.816;9.278;2023-06-10T12:24:10;6.13;;;2.55;;
20344;SDS011;10330;48.816;9.278;2023-06-10T12:49:42;2.75;;;2.55;;
20344;SDS011;10330;48.816;9.278;2023-06-10T12:52:17;3.08;;;2.78;;
20344;SDS011;10330;48.816;9.278;2023-06-10T12:55:29;5.25;;;2.75;;
20344;SDS011;10330;48.816;9.278;2023-06-10T13:03:20;3.60;;;2.40;;
20344;SDS011;10330;48.816;9.278;2023-06-10T13:15:14;2.65;;;2.42;;
20344;SDS011;10330;48.816;9.278;2023-06-10T13:18:03;2.75;;;2.55;;
20344;SDS011;10330;48.816;9.278;2023-06-10T13:20:39;2.85;;;2.65;;
20344;SDS011;10330;48.816;9.278;2023-06-10T13:23:08;2.85;;;2.05;;
20344;SDS011;10330;48.816;9.278;2023-06-10T13:25:34;2.40;;;2.30;;
20344;SDS011;10330;48.816;9.278;2023-06-10T13:32:01;2.97;;;2.67;;
20344;SDS011;10330;48.816;9.278;2023-06-10T13:34:33;5.90;;;4.40;;
20344;SDS011;10330;48.816;9.278;2023-06-10T13:37:01;22.35;;;12.93;;
20344;SDS011;10330;48.816;9.278;2023-06-10T13:39:29;15.68;;;10.50;;
20344;SDS011;10330;48.816;9.278;2023-06-10T13:41:55;4.90;;;3.83;;
20344;SDS011;10330;48.816;9.278;2023-06-10T13:44:22;3.22;;;2.92;;
20344;SDS011;10330;48.816;9.278;2023-06-10T13:47:02;3.83;;;2.80;;
20344;SDS011;10330;48.816;9.278;2023-06-10T13:49:29;4.43;;;3.00;;
20344;SDS011;10330;48.816;9.278;2023-06-10T13:51:55;5.90;;;4.53;;
20344;SDS011;10330;48.816;9.278;2023-06-10T13:54:33;13.13;;;8.10;;
20344;SDS011;10330;48.816;9.278;2023-06-10T14:01:23;2.53;;;2.33;;
20344;SDS011;10330;48.816;9.278;2023-06-10T14:03:50;3.53;;;2.60;;
20344;SDS011;10330;48.816;9.278;2023-06-10T14:06:23;18.25;;;10.00;;
20344;SDS011;10330;48.816;9.278;2023-06-10T14:09:13;4.05;;;3.67;;
20344;SDS011;10330;48.816;9.278;2023-06-10T14:15:56;8.70;;;6.15;;
20344;SDS011;10330;48.816;9.278;2023-06-10T14:37:24;5.60;;;5.10;;
20344;SDS011;10330;48.816;9.278;2023-06-10T14:39:51;3.95;;;3.65;;
20344;SDS011;10330;48.816;9.278;2023-06-10T14:53:33;4.35;;;3.03;;
20344;SDS011;10330;48.816;9.278;2023-06-10T15:03:51;2.92;;;2.72;;
20344;SDS011;10330;48.816;9.278;2023-06-10T15:10:20;3.58;;;3.28;;
20344;SDS011;10330;48.816;9.278;2023-06-10T15:12:47;2.75;;;2.55;;
20344;SDS011;10330;48.816;9.278;2023-06-10T15:15:21;3.20;;;2.90;;
20344;SDS011;10330;48.816;9.278;2023-06-10T15:17:49;2.88;;;2.67;;
20344;SDS011;10330;48.816;9.278;2023-06-10T15:23:07;3.30;;;2.90;;
20344;SDS011;10330;48.816;9.278;2023-06-10T15:25:36;2.63;;;2.53;;
20344;SDS011;10330;48.816;9.278;2023-06-10T15:28:02;2.90;;;2.70;;
20344;SDS011;10330;48.816;9.278;2023-06-10T15:30:30;3.08;;;2.78;;
20344;SDS011;10330;48.816;9.278;2023-06-10T15:32:56;4.00;;;3.00;;
20344;SDS011;10330;48.816;9.278;2023-06-10T15:35:23;2.30;;;2.20;;
20344;SDS011;10330;48.816;9.278;2023-06-10T15:37:52;4.20;;;2.30;;
20344;SDS011;10330;48.816;9.278;2023-06-10T15:40:18;3.05;;;2.38;;
20344;SDS011;10330;48.816;9.278;2023-06-10T15:42:44;3.03;;;2.83;;
20344;SDS011;10330;48.816;9.278;2023-06-10T15:45:10;2.67;;;2.47;;
20344;SDS011;10330;48.816;9.278;2023-06-10T15:51:51;2.03;;;1.90;;
20344;SDS011;10330;48.816;9.278;2023-06-10T15:57:56;2.30;;;2.20;;
20344;SDS011;10330;48.816;9.278;2023-06-10T16:00:26;5.30;;;2.67;;
20344;SDS011;10330;48.816;9.278;2023-06-10T16:02:53;2.40;;;2.30;;
20344;SDS011;10330;48.816;9.278;2023-06-10T16:05:19;3.60;;;2.38;;
20344;SDS011;10330;48.816;9.278;2023-06-10T16:07:46;3.03;;;2.72;;
20344;SDS011;10330;48.816;9.278;2023-06-10T16:10:14;2.25;;;2.15;;
20344;SDS011;10330;48.816;9.278;2023-06-10T16:12:40;2.67;;;2.33;;
20344;SDS011;10330;48.816;9.278;2023-06-10T16:15:06;10.48;;;6.75;;
20344;SDS011;10330;48.816;9.278;2023-06-10T16:17:33;5.43;;;2.80;;
20344;SDS011;10330;48.816;9.278;2023-06-10T16:19:59;1.98;;;1.85;;
20344;SDS011;10330;48.816;9.278;2023-06-10T16:22:33;2.10;;;2.00;;
20344;SDS011;10330;48.816;9.278;2023-06-10T16:25:00;3.25;;;2.58;;
20344;SDS011;10330;48.816;9.278;2023-06-10T16:27:26;5.60;;;4.65;;
20344;SDS011;10330;48.816;9.278;2023-06-10T16:29:55;4.30;;;3.90;;
20344;SDS011;10330;48.816;9.278;2023-06-10T16:32:21;2.00;;;1.90;;
20344;SDS011;10330;48.816;9.278;2023-06-10T16:34:48;2.20;;;2.10;;
20344;SDS011;10330;48.816;9.278;2023-06-10T16:37:14;1.77;;;1.77;;
20344;SDS011;10330;48.816;9.278;2023-06-10T16:39:43;3.65;;;1.92;;
20344;SDS011;10330;48.816;9.278;2023-06-10T16:42:09;2.10;;;2.00;;
20344;SDS011;10330;48.816;9.278;2023-06-10T16:44:36;3.60;;;1.80;;
20344;SDS011;10330;48.816;9.278;2023-06-10T16:47:02;2.00;;;1.90;;
20344;SDS011;10330;48.816;9.278;2023-06-10T16:49:28;2.08;;;1.88;;
20344;SDS011;10330;48.816;9.278;2023-06-10T16:51:55;2.20;;;2.10;;
20344;SDS011;10330;48.816;9.278;2023-06-10T16:54:24;1.83;;;1.73;;
20344;SDS011;10330;48.816;9.278;2023-06-10T16:56:51;2.10;;;2.00;;
20344;SDS011;10330;48.816;9.278;2023-06-10T16:59:17;2.17;;;2.00;;
20344;SDS011;10330;48.816;9.278;2023-06-10T17:01:46;1.85;;;1.75;;
20344;SDS011;10330;48.816;9.278;2023-06-10T17:04:12;2.10;;;2.00;;
20344;SDS011;10330;48.816;9.278;2023-06-10T17:06:38;2.30;;;2.10;;
20344;SDS011;10330;48.816;9.278;2023-06-10T17:09:05;3.25;;;3.05;;
20344;SDS011;10330;48.816;9.278;2023-06-10T17:11:33;3.60;;;3.40;;
20344;SDS011;10330;48.816;9.278;2023-06-10T17:16:59;2.28;;;2.17;;
20344;SDS011;10330;48.816;9.278;2023-06-10T17:19:26;2.25;;;2.15;;
20344;SDS011;10330;48.816;9.278;2023-06-10T17:21:52;2.42;;;2.30;;
20344;SDS011;10330;48.816;9.278;2023-06-10T17:24:18;3.10;;;2.78;;
20344;SDS011;10330;48.816;9.278;2023-06-10T17:26:45;2.45;;;2.25;;
20344;SDS011;10330;48.816;9.278;2023-06-10T17:29:12;4.05;;;3.75;;
20344;SDS011;10330;48.816;9.278;2023-06-10T17:31:38;2.88;;;2.72;;
20344;SDS011;10330;48.816;9.278;2023-06-10T17:34:04;2.47;;;2.28;;
20344;SDS011;10330;48.816;9.278;2023-06-10T17:36:31;2.70;;;2.40;;
20344;SDS011;10330;48.816;9.278;2023-06-10T17:38:57;3.00;;;2.80;;
20344;SDS011;10330;48.816;9.278;2023-06-10T17:41:23;4.13;;;2.83;;
20344;SDS011;10330;48.816;9.278;2023-06-10T17:43:50;5.50;;;3.40;;
20344;SDS011;10330;48.816;9.278;2023-06-10T17:46:16;13.20;;;9.23;;
20344;SDS011;10330;48.816;9.278;2023-06-10T17:48:43;6.82;;;3.60;;
20344;SDS011;10330;48.816;9.278;2023-06-10T17:51:09;3.22;;;3.00;;
20344;SDS011;10330;48.816;9.278;2023-06-10T17:53:36;2.55;;;2.35;;
20344;SDS011;10330;48.816;9.278;2023-06-10T17:56:02;4.38;;;2.80;;
20344;SDS011;10330;48.816;9.278;2023-06-10T17:58:28;3.00;;;2.80;;
20344;SDS011;10330;48.816;9.278;2023-06-10T18:00:54;3.40;;;3.10;;
20344;SDS011;10330;48.816;9.278;2023-06-10T18:03:21;4.00;;;3.25;;
20344;SDS011;10330;48.816;9.278;2023-06-10T18:05:55;2.97;;;2.78;;
20344;SDS011;10330;48.816;9.278;2023-06-10T18:08:21;3.72;;;3.13;;
20344;SDS011;10330;48.816;9.278;2023-06-10T18:10:48;8.57;;;6.65;;